»·PEaware :: N6870P KAVX-KSAN

N6870P :: KAVX-KSAN

FLIGHT INFORMATION

Flight Status: Arrived
Operator: Privately registered:
United States
More flights under this callsign
Pilot: Larry J. (31147)
Aircraft: PIPER PA-24 COMMANCHE
(PA24)
More flights by this aircraft type
Origin: KAVX Catalina
United States
Destination: KSAN San Diego Intl-Lindbergh
United States
More flights between these airports :: More routes between these airports
Route: SXC V208 OCN V23 MZB
File this flight plan on PilotEdge
Remarks: TEC route CSTP56
Altitude:
(Current/Filed)
5,000ft
Speed:
(Current/Filed)
165kts
Departed: 22-Oct-20 09:03 AM
Arrived: 22-Oct-20 09:50 AM
Distance/Time
Traveled:
74nm/0:46
Distance/Time
To Go:
Arrived

Flight Plot

Page will automatically refresh every two minutes.


Map Options




Map Legend


Flown Route
Filed Route
Departure Airport
Arrival Airport
Navaid (VOR, NDB)
Fix

Horizontal Profiles

Position Reports

Time Latitude Longitude Heading Altitude Ground
Speed
22-Oct-20 08:59 33.406979 -118.411734 54 1501ft 0kts
22-Oct-20 09:00 33.406979 -118.411734 54 1501ft 0kts
22-Oct-20 09:01 33.407096 -118.411547 50 1499ft 9kts
22-Oct-20 09:02 33.401339 -118.422918 234 1963ft 66kts
22-Oct-20 09:03 33.388051 -118.444662 231 3350ft 86kts
22-Oct-20 09:04 33.370116 -118.425568 111 4018ft 153kts
22-Oct-20 09:05 33.369222 -118.372495 95 4494ft 159kts
22-Oct-20 09:06 33.362673 -118.320089 98 5002ft 171kts
22-Oct-20 09:07 33.355200 -118.265386 97 4997ft 154kts
22-Oct-20 09:08 33.348838 -118.216298 97 5000ft 175kts
22-Oct-20 09:09 33.341335 -118.158198 98 4999ft 178kts
22-Oct-20 09:10 33.333567 -118.099516 98 4999ft 179kts
22-Oct-20 09:11 33.325717 -118.040846 98 5016ft 178kts
22-Oct-20 09:12 33.317953 -117.982172 98 5017ft 179kts
22-Oct-20 09:13 33.310077 -117.923285 98 5017ft 179kts
22-Oct-20 09:14 33.302163 -117.864383 98 5017ft 179kts
22-Oct-20 09:15 33.294377 -117.805734 97 5017ft 179kts
22-Oct-20 09:16 33.287050 -117.749727 97 5019ft 164kts
22-Oct-20 09:17 33.279453 -117.693441 98 5018ft 177kts
22-Oct-20 09:18 33.271447 -117.634470 98 5017ft 179kts
22-Oct-20 09:19 33.263550 -117.575509 96 5018ft 180kts
22-Oct-20 09:20 33.254558 -117.516691 101 5016ft 180kts
22-Oct-20 09:21 33.247095 -117.458029 97 5017ft 180kts
22-Oct-20 09:22 33.224707 -117.409089 159 5007ft 180kts
22-Oct-20 09:23 33.177247 -117.390300 159 5017ft 180kts
22-Oct-20 09:24 33.129823 -117.370270 159 5017ft 180kts
22-Oct-20 09:25 33.082690 -117.350601 160 5017ft 180kts
22-Oct-20 09:26 33.035523 -117.330669 159 5017ft 180kts
22-Oct-20 09:27 32.988317 -117.310847 160 5017ft 180kts
22-Oct-20 09:28 32.941097 -117.291062 160 5017ft 180kts
22-Oct-20 09:29 32.894036 -117.271367 160 5017ft 180kts
22-Oct-20 09:30 32.847757 -117.249255 129 5018ft 180kts
22-Oct-20 09:31 32.828662 -117.194341 110 5018ft 180kts
22-Oct-20 09:32 32.810568 -117.138798 110 5017ft 180kts
22-Oct-20 09:33 32.792646 -117.083811 110 5017ft 180kts
22-Oct-20 09:34 32.774697 -117.028747 110 5017ft 180kts
22-Oct-20 09:35 32.756590 -116.973165 110 5017ft 180kts
22-Oct-20 09:36 32.738549 -116.917755 110 5017ft 180kts
22-Oct-20 09:37 32.712635 -116.880978 188 4042ft 126kts
22-Oct-20 09:38 32.682855 -116.888089 189 4015ft 103kts
22-Oct-20 09:39 32.669291 -116.913699 255 4017ft 99kts
22-Oct-20 09:40 32.671516 -116.946010 284 3970ft 104kts
22-Oct-20 09:41 32.681365 -116.981129 287 3561ft 109kts
22-Oct-20 09:42 32.690051 -117.013137 286 2739ft 89kts
22-Oct-20 09:43 32.696736 -117.040115 284 2721ft 91kts
22-Oct-20 09:44 32.704840 -117.072631 285 2043ft 104kts
22-Oct-20 09:45 32.712347 -117.103207 285 1648ft 99kts
22-Oct-20 09:46 32.719392 -117.131701 284 820ft 84kts
22-Oct-20 09:47 32.725561 -117.156852 283 580ft 81kts
22-Oct-20 09:48 32.731567 -117.181584 286 49ft 63kts
22-Oct-20 09:49 32.734432 -117.188187 3 19ft 16kts

Navigation Log

Ident Type
Flight plan parsing failed, navigation log unavailable